Time,TemperatureF,DewpointF,PressureIn,WindDirection,WindDirectionDegrees,WindSpeedMPH,WindSpeedGustMPH,Humidity,HourlyPrecipIn,Conditions,Clouds,dailyrainin,SoftwareType,DateUTC
2013-06-24 00:06:00,75.5,28.9,29.84,North,-999,-999.0,-999.0,17,-99.99,,,-99.99,,2013-06-24 07:06:00,
2013-06-24 00:12:00,75.2,28.8,29.86,North,-999,-999.0,-999.0,18,-99.99,,,-99.99,,2013-06-24 07:12:00,
2013-06-24 00:24:00,75.4,28.5,29.86,North,-999,-999.0,-999.0,17,-99.99,,,-99.99,,2013-06-24 07:24:00,
2013-06-24 00:30:00,76.2,28.4,29.87,North,-999,-999.0,-999.0,17,-99.99,,,-99.99,,2013-06-24 07:30:00,
2013-06-24 00:36:00,76.3,28.5,29.86,North,-999,-999.0,-999.0,17,-99.99,,,-99.99,,2013-06-24 07:36:00,
2013-06-24 00:48:00,76.2,28.5,29.86,North,-999,-999.0,-999.0,17,-99.99,,,-99.99,,2013-06-24 07:48:00,
2013-06-24 00:54:00,75.7,28.4,29.86,North,-999,-999.0,-999.0,17,-99.99,,,-99.99,,2013-06-24 07:54:00,
2013-06-24 01:00:00,75.3,28.1,29.86,North,-999,-999.0,-999.0,17,-99.99,,,-99.99,,2013-06-24 08:00:00,
2013-06-24 01:06:00,75.7,28.0,29.87,North,-999,-999.0,-999.0,17,-99.99,,,-99.99,,2013-06-24 08:06:00,
2013-06-24 01:12:00,75.6,27.7,29.87,North,-999,-999.0,-999.0,17,-99.99,,,-99.99,,2013-06-24 08:12:00,
2013-06-24 01:18:00,75.8,27.3,29.86,North,-999,-999.0,-999.0,16,-99.99,,,-99.99,,2013-06-24 08:18:00,
2013-06-24 01:24:00,76.6,26.4,29.87,North,-999,-999.0,-999.0,15,-99.99,,,-99.99,,2013-06-24 08:24:00,
2013-06-24 01:42:00,79.6,23.6,29.86,North,-999,-999.0,-999.0,12,-99.99,,,-99.99,,2013-06-24 08:42:00,
2013-06-24 01:48:00,79.5,23.1,29.88,North,-999,-999.0,-999.0,12,-99.99,,,-99.99,,2013-06-24 08:48:00,
2013-06-24 01:54:00,79.5,23.4,29.88,North,-999,-999.0,-999.0,12,-99.99,,,-99.99,,2013-06-24 08:54:00,
2013-06-24 02:00:00,79.0,23.9,29.87,North,-999,-999.0,-999.0,12,-99.99,,,-99.99,,2013-06-24 09:00:00,
2013-06-24 02:06:00,78.9,23.7,29.88,North,-999,-999.0,-999.0,12,-99.99,,,-99.99,,2013-06-24 09:06:00,
2013-06-24 02:12:00,79.1,23.4,29.89,North,-999,-999.0,-999.0,12,-99.99,,,-99.99,,2013-06-24 09:12:00,
2013-06-24 02:18:00,78.5,23.4,29.87,North,-999,-999.0,-999.0,12,-99.99,,,-99.99,,2013-06-24 09:18:00,
2013-06-24 02:24:00,78.7,23.2,29.88,North,-999,-999.0,-999.0,12,-99.99,,,-99.99,,2013-06-24 09:24:00,
2013-06-24 02:30:00,78.4,23.4,29.88,North,-999,-999.0,-999.0,12,-99.99,,,-99.99,,2013-06-24 09:30:00,
2013-06-24 02:36:00,78.0,23.7,29.87,North,-999,-999.0,-999.0,13,-99.99,,,-99.99,,2013-06-24 09:36:00,
2013-06-24 02:42:00,77.6,23.8,29.87,North,-999,-999.0,-999.0,13,-99.99,,,-99.99,,2013-06-24 09:42:00,
2013-06-24 02:48:00,77.1,23.9,29.87,North,-999,-999.0,-999.0,13,-99.99,,,-99.99,,2013-06-24 09:48:00,
2013-06-24 02:54:00,76.7,24.1,29.87,North,-999,-999.0,-999.0,14,-99.99,,,-99.99,,2013-06-24 09:54:00,
2013-06-24 03:00:00,76.3,24.4,29.87,North,-999,-999.0,-999.0,14,-99.99,,,-99.99,,2013-06-24 10:00:00,
2013-06-24 03:06:00,75.7,24.4,29.88,North,-999,-999.0,-999.0,14,-99.99,,,-99.99,,2013-06-24 10:06:00,
2013-06-24 03:12:00,76.0,24.8,29.88,North,-999,-999.0,-999.0,14,-99.99,,,-99.99,,2013-06-24 10:12:00,
2013-06-24 03:18:00,74.8,24.6,29.88,North,-999,-999.0,-999.0,15,-99.99,,,-99.99,,2013-06-24 10:18:00,
2013-06-24 03:24:00,72.9,24.5,29.89,North,-999,-999.0,-999.0,16,-99.99,,,-99.99,,2013-06-24 10:24:00,
2013-06-24 03:36:00,71.7,24.7,29.87,North,-999,-999.0,-999.0,17,-99.99,,,-99.99,,2013-06-24 10:36:00,
2013-06-24 03:42:00,70.2,24.4,29.88,North,-999,-999.0,-999.0,17,-99.99,,,-99.99,,2013-06-24 10:42:00,
2013-06-24 04:00:00,72.2,25.6,29.89,North,-999,-999.0,-999.0,17,-99.99,,,-99.99,,2013-06-24 11:00:00,
2013-06-24 04:06:00,71.5,25.6,29.89,North,-999,-999.0,-999.0,17,-99.99,,,-99.99,,2013-06-24 11:06:00,
2013-06-24 04:12:00,69.4,25.4,29.89,North,-999,-999.0,-999.0,19,-99.99,,,-99.99,,2013-06-24 11:12:00,
2013-06-24 04:18:00,68.9,25.9,29.89,North,-999,-999.0,-999.0,19,-99.99,,,-99.99,,2013-06-24 11:18:00,
2013-06-24 04:24:00,68.5,25.5,29.88,North,-999,-999.0,-999.0,19,-99.99,,,-99.99,,2013-06-24 11:24:00,
2013-06-24 04:30:00,67.2,25.8,29.89,North,-999,-999.0,-999.0,20,-99.99,,,-99.99,,2013-06-24 11:30:00,
2013-06-24 04:36:00,67.5,26.5,29.89,North,-999,-999.0,-999.0,21,-99.99,,,-99.99,,2013-06-24 11:36:00,
2013-06-24 04:42:00,67.8,26.5,29.88,North,-999,-999.0,-999.0,21,-99.99,,,-99.99,,2013-06-24 11:42:00,
2013-06-24 04:48:00,68.0,26.2,29.89,North,-999,-999.0,-999.0,20,-99.99,,,-99.99,,2013-06-24 11:48:00,
2013-06-24 04:54:00,68.8,25.7,29.89,North,-999,-999.0,-999.0,19,-99.99,,,-99.99,,2013-06-24 11:54:00,
2013-06-24 05:00:00,68.2,25.7,29.89,North,-999,-999.0,-999.0,20,-99.99,,,-99.99,,2013-06-24 12:00:00,
2013-06-24 05:12:00,68.1,26.0,29.91,North,-999,-999.0,-999.0,20,-99.99,,,-99.99,,2013-06-24 12:12:00,
2013-06-24 05:18:00,68.0,26.5,29.91,North,-999,-999.0,-999.0,20,-99.99,,,-99.99,,2013-06-24 12:18:00,
2013-06-24 05:24:00,66.7,26.5,29.91,North,-999,-999.0,-999.0,21,-99.99,,,-99.99,,2013-06-24 12:24:00,
2013-06-24 05:30:00,67.1,27.9,29.92,North,-999,-999.0,-999.0,22,-99.99,,,-99.99,,2013-06-24 12:30:00,
2013-06-24 05:42:00,67.2,28.8,29.92,North,-999,-999.0,-999.0,23,-99.99,,,-99.99,,2013-06-24 12:42:00,
2013-06-24 05:48:00,66.7,29.3,29.91,North,-999,-999.0,-999.0,24,-99.99,,,-99.99,,2013-06-24 12:48:00,
2013-06-24 05:54:00,67.4,30.7,29.92,North,-999,-999.0,-999.0,25,-99.99,,,-99.99,,2013-06-24 12:54:00,
2013-06-24 06:00:00,68.4,31.9,29.93,North,-999,-999.0,-999.0,25,-99.99,,,-99.99,,2013-06-24 13:00:00,
2013-06-24 06:12:00,71.2,35.7,29.91,North,-999,-999.0,-999.0,27,-99.99,,,-99.99,,2013-06-24 13:12:00,
2013-06-24 06:24:00,73.2,38.2,29.92,North,-999,-999.0,-999.0,28,-99.99,,,-99.99,,2013-06-24 13:24:00,
2013-06-24 06:30:00,74.0,39.0,29.92,North,-999,-999.0,-999.0,28,-99.99,,,-99.99,,2013-06-24 13:30:00,
2013-06-24 06:36:00,74.8,39.8,29.91,North,-999,-999.0,-999.0,28,-99.99,,,-99.99,,2013-06-24 13:36:00,
2013-06-24 06:42:00,75.2,40.7,29.91,North,-999,-999.0,-999.0,29,-99.99,,,-99.99,,2013-06-24 13:42:00,
2013-06-24 06:48:00,75.9,41.2,29.91,North,-999,-999.0,-999.0,28,-99.99,,,-99.99,,2013-06-24 13:48:00,
2013-06-24 06:54:00,77.1,39.9,29.91,North,-999,-999.0,-999.0,26,-99.99,,,-99.99,,2013-06-24 13:54:00,
2013-06-24 07:00:00,78.2,38.4,29.92,North,-999,-999.0,-999.0,23,-99.99,,,-99.99,,2013-06-24 14:00:00,
2013-06-24 07:12:00,79.9,39.0,29.92,North,-999,-999.0,-999.0,23,-99.99,,,-99.99,,2013-06-24 14:12:00,
2013-06-24 07:24:00,81.1,39.7,29.93,North,-999,-999.0,-999.0,22,-99.99,,,-99.99,,2013-06-24 14:24:00,
2013-06-24 07:30:00,81.5,39.4,29.93,North,-999,-999.0,-999.0,22,-99.99,,,-99.99,,2013-06-24 14:30:00,
2013-06-24 07:54:00,84.5,40.6,29.93,North,-999,-999.0,-999.0,21,-99.99,,,-99.99,,2013-06-24 14:54:00,
2013-06-24 08:06:00,85.9,40.6,29.94,North,-999,-999.0,-999.0,20,-99.99,,,-99.99,,2013-06-24 15:06:00,
2013-06-24 08:12:00,86.2,40.2,29.94,North,-999,-999.0,-999.0,19,-99.99,,,-99.99,,2013-06-24 15:12:00,
2013-06-24 08:18:00,86.7,40.0,29.94,North,-999,-999.0,-999.0,19,-99.99,,,-99.99,,2013-06-24 15:18:00,
2013-06-24 08:24:00,86.9,39.5,29.94,North,-999,-999.0,-999.0,18,-99.99,,,-99.99,,2013-06-24 15:24:00,
2013-06-24 08:30:00,87.9,39.4,29.93,North,-999,-999.0,-999.0,18,-99.99,,,-99.99,,2013-06-24 15:30:00,
2013-06-24 08:36:00,88.7,39.6,29.95,North,-999,-999.0,-999.0,17,-99.99,,,-99.99,,2013-06-24 15:36:00,
2013-06-24 08:42:00,89.4,38.4,29.94,North,-999,-999.0,-999.0,16,-99.99,,,-99.99,,2013-06-24 15:42:00,
2013-06-24 08:48:00,89.7,37.9,29.94,North,-999,-999.0,-999.0,16,-99.99,,,-99.99,,2013-06-24 15:48:00,
2013-06-24 08:54:00,90.2,37.7,29.94,North,-999,-999.0,-999.0,15,-99.99,,,-99.99,,2013-06-24 15:54:00,
2013-06-24 09:00:00,90.5,37.4,29.94,North,-999,-999.0,-999.0,15,-99.99,,,-99.99,,2013-06-24 16:00:00,
2013-06-24 09:12:00,91.5,37.3,29.94,North,-999,-999.0,-999.0,14,-99.99,,,-99.99,,2013-06-24 16:12:00,
2013-06-24 09:18:00,92.2,37.4,29.95,North,-999,-999.0,-999.0,14,-99.99,,,-99.99,,2013-06-24 16:18:00,
2013-06-24 09:24:00,92.5,37.5,29.93,North,-999,-999.0,-999.0,14,-99.99,,,-99.99,,2013-06-24 16:24:00,
2013-06-24 09:30:00,92.7,37.3,29.93,North,-999,-999.0,-999.0,14,-99.99,,,-99.99,,2013-06-24 16:30:00,
2013-06-24 09:36:00,93.7,37.9,29.93,North,-999,-999.0,-999.0,14,-99.99,,,-99.99,,2013-06-24 16:36:00,
2013-06-24 09:48:00,95.5,37.5,29.93,North,-999,-999.0,-999.0,13,-99.99,,,-99.99,,2013-06-24 16:48:00,
2013-06-24 10:00:00,97.7,33.6,29.94,North,-999,-999.0,-999.0,10,-99.99,,,-99.99,,2013-06-24 17:00:00,
2013-06-24 10:06:00,98.7,33.5,29.93,North,-999,-999.0,-999.0,10,-99.99,,,-99.99,,2013-06-24 17:06:00,
2013-06-24 10:12:00,98.3,32.4,29.93,North,-999,-999.0,-999.0,10,-99.99,,,-99.99,,2013-06-24 17:12:00,
2013-06-24 10:18:00,98.6,32.8,29.94,North,-999,-999.0,-999.0,10,-99.99,,,-99.99,,2013-06-24 17:18:00,
2013-06-24 10:24:00,99.0,32.7,29.93,North,-999,-999.0,-999.0,9,-99.99,,,-99.99,,2013-06-24 17:24:00,
2013-06-24 10:30:00,99.1,31.9,29.94,North,-999,-999.0,-999.0,9,-99.99,,,-99.99,,2013-06-24 17:30:00,
2013-06-24 10:36:00,98.9,33.3,29.94,North,-999,-999.0,-999.0,10,-99.99,,,-99.99,,2013-06-24 17:36:00,
2013-06-24 10:42:00,99.4,32.4,29.93,North,-999,-999.0,-999.0,9,-99.99,,,-99.99,,2013-06-24 17:42:00,
2013-06-24 10:48:00,99.3,33.3,29.94,North,-999,-999.0,-999.0,10,-99.99,,,-99.99,,2013-06-24 17:48:00,
2013-06-24 10:54:00,99.7,34.3,29.92,North,-999,-999.0,-999.0,10,-99.99,,,-99.99,,2013-06-24 17:54:00,
2013-06-24 11:00:00,100.1,33.4,29.92,North,-999,-999.0,-999.0,9,-99.99,,,-99.99,,2013-06-24 18:00:00,
2013-06-24 11:06:00,100.7,33.3,29.93,North,-999,-999.0,-999.0,9,-99.99,,,-99.99,,2013-06-24 18:06:00,
2013-06-24 11:12:00,100.6,34.4,29.93,North,-999,-999.0,-999.0,10,-99.99,,,-99.99,,2013-06-24 18:12:00,
2013-06-24 11:18:00,100.5,34.9,29.93,North,-999,-999.0,-999.0,10,-99.99,,,-99.99,,2013-06-24 18:18:00,
2013-06-24 11:24:00,100.8,34.3,29.93,North,-999,-999.0,-999.0,10,-99.99,,,-99.99,,2013-06-24 18:24:00,
2013-06-24 11:30:00,101.5,34.2,29.93,North,-999,-999.0,-999.0,9,-99.99,,,-99.99,,2013-06-24 18:30:00,
2013-06-24 11:42:00,101.8,36.0,29.93,North,-999,-999.0,-999.0,10,-99.99,,,-99.99,,2013-06-24 18:42:00,
2013-06-24 11:48:00,101.5,36.1,29.92,North,-999,-999.0,-999.0,10,-99.99,,,-99.99,,2013-06-24 18:48:00,
2013-06-24 12:00:00,101.1,36.0,29.92,North,-999,-999.0,-999.0,10,-99.99,,,-99.99,,2013-06-24 19:00:00,
2013-06-24 12:06:00,102.2,34.7,29.92,North,-999,-999.0,-999.0,9,-99.99,,,-99.99,,2013-06-24 19:06:00,
2013-06-24 12:12:00,103.2,33.1,29.93,North,-999,-999.0,-999.0,8,-99.99,,,-99.99,,2013-06-24 19:12:00,
2013-06-24 12:18:00,102.7,32.3,29.93,North,-999,-999.0,-999.0,8,-99.99,,,-99.99,,2013-06-24 19:18:00,
2013-06-24 12:24:00,102.7,32.0,29.92,North,-999,-999.0,-999.0,8,-99.99,,,-99.99,,2013-06-24 19:24:00,
2013-06-24 12:30:00,103.9,32.6,29.92,North,-999,-999.0,-999.0,8,-99.99,,,-99.99,,2013-06-24 19:30:00,
2013-06-24 12:48:00,103.2,31.4,29.91,North,-999,-999.0,-999.0,8,-99.99,,,-99.99,,2013-06-24 19:48:00,
2013-06-24 13:00:00,103.6,31.0,29.91,North,-999,-999.0,-999.0,8,-99.99,,,-99.99,,2013-06-24 20:00:00,
2013-06-24 13:06:00,104.6,32.3,29.90,North,-999,-999.0,-999.0,8,-99.99,,,-99.99,,2013-06-24 20:06:00,
2013-06-24 13:18:00,104.2,30.8,29.91,North,-999,-999.0,-999.0,7,-99.99,,,-99.99,,2013-06-24 20:18:00,
2013-06-24 13:24:00,104.3,32.4,29.92,North,-999,-999.0,-999.0,8,-99.99,,,-99.99,,2013-06-24 20:24:00,
2013-06-24 13:30:00,104.9,32.2,29.90,North,-999,-999.0,-999.0,8,-99.99,,,-99.99,,2013-06-24 20:30:00,
2013-06-24 13:36:00,103.2,33.7,29.90,North,-999,-999.0,-999.0,9,-99.99,,,-99.99,,2013-06-24 20:36:00,
2013-06-24 13:42:00,103.3,34.5,29.90,North,-999,-999.0,-999.0,9,-99.99,,,-99.99,,2013-06-24 20:42:00,
2013-06-24 13:48:00,103.8,35.0,29.90,North,-999,-999.0,-999.0,9,-99.99,,,-99.99,,2013-06-24 20:48:00,
2013-06-24 13:54:00,104.5,34.1,29.90,North,-999,-999.0,-999.0,8,-99.99,,,-99.99,,2013-06-24 20:54:00,
2013-06-24 14:00:00,104.0,34.7,29.89,North,-999,-999.0,-999.0,9,-99.99,,,-99.99,,2013-06-24 21:00:00,
2013-06-24 14:12:00,104.1,34.7,29.90,North,-999,-999.0,-999.0,9,-99.99,,,-99.99,,2013-06-24 21:12:00,
2013-06-24 14:18:00,103.9,31.8,29.89,North,-999,-999.0,-999.0,8,-99.99,,,-99.99,,2013-06-24 21:18:00,
2013-06-24 14:30:00,103.9,29.6,29.90,North,-999,-999.0,-999.0,7,-99.99,,,-99.99,,2013-06-24 21:30:00,
2013-06-24 14:36:00,104.6,29.1,29.89,North,-999,-999.0,-999.0,7,-99.99,,,-99.99,,2013-06-24 21:36:00,
2013-06-24 14:42:00,104.6,29.0,29.89,North,-999,-999.0,-999.0,7,-99.99,,,-99.99,,2013-06-24 21:42:00,
2013-06-24 14:48:00,105.0,28.2,29.89,North,-999,-999.0,-999.0,6,-99.99,,,-99.99,,2013-06-24 21:48:00,
2013-06-24 14:54:00,105.0,27.8,29.89,North,-999,-999.0,-999.0,6,-99.99,,,-99.99,,2013-06-24 21:54:00,
2013-06-24 15:06:00,104.0,27.7,29.89,North,-999,-999.0,-999.0,6,-99.99,,,-99.99,,2013-06-24 22:06:00,
2013-06-24 15:18:00,103.1,28.5,29.87,North,-999,-999.0,-999.0,7,-99.99,,,-99.99,,2013-06-24 22:18:00,
2013-06-24 15:24:00,103.5,28.3,29.88,North,-999,-999.0,-999.0,7,-99.99,,,-99.99,,2013-06-24 22:24:00,
2013-06-24 15:30:00,103.5,26.5,29.88,North,-999,-999.0,-999.0,6,-99.99,,,-99.99,,2013-06-24 22:30:00,
2013-06-24 15:36:00,103.2,25.7,29.88,North,-999,-999.0,-999.0,6,-99.99,,,-99.99,,2013-06-24 22:36:00,
2013-06-24 15:42:00,103.1,26.5,29.87,North,-999,-999.0,-999.0,6,-99.99,,,-99.99,,2013-06-24 22:42:00,
2013-06-24 15:54:00,102.9,28.4,29.87,North,-999,-999.0,-999.0,7,-99.99,,,-99.99,,2013-06-24 22:54:00,
2013-06-24 16:00:00,103.2,26.9,29.87,North,-999,-999.0,-999.0,6,-99.99,,,-99.99,,2013-06-24 23:00:00,
2013-06-24 16:06:00,102.4,25.8,29.86,North,-999,-999.0,-999.0,6,-99.99,,,-99.99,,2013-06-24 23:06:00,
2013-06-24 16:12:00,103.1,25.1,29.86,North,-999,-999.0,-999.0,6,-99.99,,,-99.99,,2013-06-24 23:12:00,
2013-06-24 16:18:00,102.3,23.2,29.86,North,-999,-999.0,-999.0,6,-99.99,,,-99.99,,2013-06-24 23:18:00,
2013-06-24 16:30:00,103.1,24.3,29.86,North,-999,-999.0,-999.0,6,-99.99,,,-99.99,,2013-06-24 23:30:00,
2013-06-24 16:36:00,102.4,23.0,29.87,North,-999,-999.0,-999.0,6,-99.99,,,-99.99,,2013-06-24 23:36:00,
2013-06-24 16:42:00,102.1,23.3,29.88,North,-999,-999.0,-999.0,6,-99.99,,,-99.99,,2013-06-24 23:42:00,
2013-06-24 16:48:00,102.5,23.7,29.88,North,-999,-999.0,-999.0,6,-99.99,,,-99.99,,2013-06-24 23:48:00,
2013-06-24 16:54:00,102.6,24.1,29.86,North,-999,-999.0,-999.0,6,-99.99,,,-99.99,,2013-06-24 23:54:00,
2013-06-24 17:00:00,102.1,23.6,29.86,North,-999,-999.0,-999.0,6,-99.99,,,-99.99,,2013-06-25 00:00:00,
2013-06-24 17:06:00,100.9,21.9,29.87,North,-999,-999.0,-999.0,6,-99.99,,,-99.99,,2013-06-25 00:06:00,
2013-06-24 17:12:00,100.7,17.9,29.85,North,-999,-999.0,-999.0,5,-99.99,,,-99.99,,2013-06-25 00:12:00,
2013-06-24 17:18:00,99.2,18.5,29.85,North,-999,-999.0,-999.0,5,-99.99,,,-99.99,,2013-06-25 00:18:00,
2013-06-24 17:24:00,99.3,21.5,29.86,North,-999,-999.0,-999.0,6,-99.99,,,-99.99,,2013-06-25 00:24:00,
2013-06-24 17:30:00,99.6,23.2,29.86,North,-999,-999.0,-999.0,6,-99.99,,,-99.99,,2013-06-25 00:30:00,
2013-06-24 17:36:00,99.1,23.4,29.87,North,-999,-999.0,-999.0,6,-99.99,,,-99.99,,2013-06-25 00:36:00,
2013-06-24 17:42:00,98.6,23.5,29.86,North,-999,-999.0,-999.0,6,-99.99,,,-99.99,,2013-06-25 00:42:00,
2013-06-24 17:54:00,98.3,23.2,29.86,North,-999,-999.0,-999.0,6,-99.99,,,-99.99,,2013-06-25 00:54:00,
2013-06-24 18:06:00,97.9,23.7,29.86,North,-999,-999.0,-999.0,7,-99.99,,,-99.99,,2013-06-25 01:06:00,
2013-06-24 18:18:00,97.9,24.0,29.87,North,-999,-999.0,-999.0,7,-99.99,,,-99.99,,2013-06-25 01:18:00,
2013-06-24 18:30:00,97.8,24.8,29.88,North,-999,-999.0,-999.0,7,-99.99,,,-99.99,,2013-06-25 01:30:00,
2013-06-24 18:36:00,97.5,25.1,29.87,North,-999,-999.0,-999.0,7,-99.99,,,-99.99,,2013-06-25 01:36:00,
2013-06-24 18:42:00,96.8,25.3,29.88,North,-999,-999.0,-999.0,7,-99.99,,,-99.99,,2013-06-25 01:42:00,
2013-06-24 18:48:00,95.7,27.6,29.86,North,-999,-999.0,-999.0,8,-99.99,,,-99.99,,2013-06-25 01:48:00,
2013-06-24 19:12:00,93.7,29.8,29.88,North,-999,-999.0,-999.0,10,-99.99,,,-99.99,,2013-06-25 02:12:00,
2013-06-24 19:18:00,93.2,30.4,29.88,North,-999,-999.0,-999.0,10,-99.99,,,-99.99,,2013-06-25 02:18:00,
2013-06-24 19:30:00,92.1,30.8,29.88,North,-999,-999.0,-999.0,11,-99.99,,,-99.99,,2013-06-25 02:30:00,
2013-06-24 19:42:00,91.2,32.9,29.87,North,-999,-999.0,-999.0,12,-99.99,,,-99.99,,2013-06-25 02:42:00,
2013-06-24 19:48:00,90.7,34.2,29.88,North,-999,-999.0,-999.0,13,-99.99,,,-99.99,,2013-06-25 02:48:00,
2013-06-24 20:00:00,89.7,37.8,29.90,North,-999,-999.0,-999.0,16,-99.99,,,-99.99,,2013-06-25 03:00:00,
2013-06-24 20:12:00,88.6,38.7,29.90,North,-999,-999.0,-999.0,17,-99.99,,,-99.99,,2013-06-25 03:12:00,
2013-06-24 20:18:00,88.1,38.8,29.88,North,-999,-999.0,-999.0,17,-99.99,,,-99.99,,2013-06-25 03:18:00,
2013-06-24 20:24:00,87.7,38.8,29.89,North,-999,-999.0,-999.0,17,-99.99,,,-99.99,,2013-06-25 03:24:00,
2013-06-24 20:42:00,87.1,37.5,29.89,North,-999,-999.0,-999.0,17,-99.99,,,-99.99,,2013-06-25 03:42:00,
2013-06-24 20:48:00,86.7,37.3,29.91,North,-999,-999.0,-999.0,17,-99.99,,,-99.99,,2013-06-25 03:48:00,
2013-06-24 20:54:00,86.3,37.3,29.91,North,-999,-999.0,-999.0,17,-99.99,,,-99.99,,2013-06-25 03:54:00,
2013-06-24 21:06:00,85.6,36.8,29.91,North,-999,-999.0,-999.0,17,-99.99,,,-99.99,,2013-06-25 04:06:00,
2013-06-24 21:12:00,85.3,36.6,29.92,North,-999,-999.0,-999.0,17,-99.99,,,-99.99,,2013-06-25 04:12:00,
2013-06-24 21:18:00,85.3,36.2,29.93,North,-999,-999.0,-999.0,17,-99.99,,,-99.99,,2013-06-25 04:18:00,
2013-06-24 21:24:00,85.2,35.9,29.92,North,-999,-999.0,-999.0,17,-99.99,,,-99.99,,2013-06-25 04:24:00,
2013-06-24 21:30:00,85.1,35.9,29.92,North,-999,-999.0,-999.0,17,-99.99,,,-99.99,,2013-06-25 04:30:00,
2013-06-24 21:36:00,84.7,36.0,29.93,North,-999,-999.0,-999.0,17,-99.99,,,-99.99,,2013-06-25 04:36:00,
2013-06-24 21:42:00,84.2,35.9,29.93,North,-999,-999.0,-999.0,17,-99.99,,,-99.99,,2013-06-25 04:42:00,
2013-06-24 21:48:00,83.8,35.6,29.92,North,-999,-999.0,-999.0,17,-99.99,,,-99.99,,2013-06-25 04:48:00,
2013-06-24 21:54:00,83.2,35.5,29.94,North,-999,-999.0,-999.0,18,-99.99,,,-99.99,,2013-06-25 04:54:00,
2013-06-24 22:00:00,82.6,35.4,29.94,North,-999,-999.0,-999.0,18,-99.99,,,-99.99,,2013-06-25 05:00:00,
2013-06-24 22:06:00,82.2,35.3,29.94,North,-999,-999.0,-999.0,18,-99.99,,,-99.99,,2013-06-25 05:06:00,
2013-06-24 22:12:00,81.7,35.1,29.94,North,-999,-999.0,-999.0,18,-99.99,,,-99.99,,2013-06-25 05:12:00,
2013-06-24 22:18:00,81.7,35.2,29.94,North,-999,-999.0,-999.0,18,-99.99,,,-99.99,,2013-06-25 05:18:00,
2013-06-24 22:24:00,81.3,35.2,29.94,North,-999,-999.0,-999.0,19,-99.99,,,-99.99,,2013-06-25 05:24:00,
2013-06-24 22:30:00,81.5,35.3,29.94,North,-999,-999.0,-999.0,19,-99.99,,,-99.99,,2013-06-25 05:30:00,
2013-06-24 22:36:00,81.0,35.2,29.93,North,-999,-999.0,-999.0,19,-99.99,,,-99.99,,2013-06-25 05:36:00,
2013-06-24 22:42:00,80.5,35.1,29.95,North,-999,-999.0,-999.0,19,-99.99,,,-99.99,,2013-06-25 05:42:00,
2013-06-24 22:48:00,81.1,35.5,29.94,North,-999,-999.0,-999.0,19,-99.99,,,-99.99,,2013-06-25 05:48:00,
2013-06-24 22:54:00,81.7,35.9,29.95,North,-999,-999.0,-999.0,19,-99.99,,,-99.99,,2013-06-25 05:54:00,
2013-06-24 23:00:00,81.5,36.0,29.95,North,-999,-999.0,-999.0,19,-99.99,,,-99.99,,2013-06-25 06:00:00,
2013-06-24 23:06:00,81.3,36.3,29.95,North,-999,-999.0,-999.0,19,-99.99,,,-99.99,,2013-06-25 06:06:00,
2013-06-24 23:12:00,80.8,36.5,29.95,North,-999,-999.0,-999.0,20,-99.99,,,-99.99,,2013-06-25 06:12:00,
2013-06-24 23:18:00,80.7,36.7,29.95,North,-999,-999.0,-999.0,20,-99.99,,,-99.99,,2013-06-25 06:18:00,
2013-06-24 23:24:00,80.4,36.8,29.96,North,-999,-999.0,-999.0,20,-99.99,,,-99.99,,2013-06-25 06:24:00,
2013-06-24 23:30:00,79.4,36.5,29.95,North,-999,-999.0,-999.0,21,-99.99,,,-99.99,,2013-06-25 06:30:00,
2013-06-24 23:36:00,78.1,36.6,29.95,North,-999,-999.0,-999.0,22,-99.99,,,-99.99,,2013-06-25 06:36:00,
2013-06-24 23:42:00,78.5,36.8,29.96,North,-999,-999.0,-999.0,22,-99.99,,,-99.99,,2013-06-25 06:42:00,
2013-06-24 23:48:00,77.9,36.4,29.96,North,-999,-999.0,-999.0,22,-99.99,,,-99.99,,2013-06-25 06:48:00,
2013-06-24 23:54:00,78.0,36.2,29.96,North,-999,-999.0,-999.0,22,-99.99,,,-99.99,,2013-06-25 06:54:00,